createdAt,value
2023-11-25T00:03:03.955Z,97948.91
2023-11-25T00:06:28.685Z,97943.19
2023-11-25T00:09:50.596Z,97952.34
2023-11-25T00:13:12.467Z,97932.66
2023-11-25T00:16:34.587Z,97972.09
2023-11-25T00:19:57.498Z,97967.91
2023-11-25T00:23:20.584Z,97980.81
2023-11-25T00:26:42.197Z,97981.56
2023-11-25T00:30:05.753Z,97985.84
2023-11-25T00:33:27.569Z,97987.63
2023-11-25T00:36:49.702Z,97993.63
2023-11-25T00:40:14.014Z,97994.50
2023-11-25T00:43:35.917Z,97994.81
2023-11-25T00:46:57.794Z,97995.69
2023-11-25T00:50:20.708Z,98012.50
2023-11-25T00:53:42.894Z,98015.91
2023-11-25T00:57:06.240Z,98024.53
2023-11-25T01:00:28.066Z,98024.41
2023-11-25T01:03:49.799Z,98023.59
2023-11-25T01:07:12.219Z,98024.66
2023-11-25T01:10:34.075Z,98002.03
2023-11-25T01:13:57.282Z,98029.66
2023-11-25T01:17:19.204Z,98040.69
2023-11-25T01:20:41.048Z,98050.03
2023-11-25T01:24:02.969Z,98054.34
2023-11-25T01:27:24.879Z,98055.34
2023-11-25T01:30:48.143Z,98060.47
2023-11-25T01:34:09.905Z,98059.63
2023-11-25T01:37:31.901Z,98058.03
2023-11-25T01:40:57.121Z,98062.25
2023-11-25T01:44:19.331Z,98064.00
2023-11-25T01:47:43.283Z,98058.28
2023-11-25T01:51:07.309Z,98070.88
2023-11-25T01:54:29.706Z,98064.97
2023-11-25T01:57:51.413Z,98080.47
2023-11-25T02:01:13.572Z,98079.63
2023-11-25T02:04:36.812Z,98083.09
2023-11-25T02:07:58.866Z,98079.72
2023-11-25T02:11:20.730Z,98086.59
2023-11-25T02:14:42.780Z,98084.94
2023-11-25T02:18:05.034Z,98093.41
2023-11-25T02:21:28.106Z,98094.38
2023-11-25T02:24:51.147Z,98096.06
2023-11-25T02:28:12.796Z,98091.16
2023-11-25T02:31:34.808Z,98099.66
2023-11-25T02:34:56.938Z,98097.81
2023-11-25T02:38:18.517Z,98087.88
2023-11-25T02:41:42.092Z,98105.59
2023-11-25T02:45:03.772Z,98110.72
2023-11-25T02:48:26.280Z,98097.41
2023-11-25T02:51:52.472Z,98111.63
2023-11-25T02:55:14.714Z,98118.53
2023-11-25T02:58:38.431Z,98125.38
2023-11-25T03:02:10.648Z,98127.97
2023-11-25T03:05:33.467Z,98129.66
2023-11-25T03:08:55.607Z,98134.84
2023-11-25T03:12:17.662Z,98139.97
2023-11-25T03:15:43.976Z,98140.75
2023-11-25T03:19:07.447Z,98138.19
2023-11-25T03:22:29.310Z,98144.13
2023-11-25T03:25:51.414Z,98145.91
2023-11-25T03:29:13.305Z,98147.72
2023-11-25T03:32:36.864Z,98131.94
2023-11-25T03:35:58.763Z,98165.75
2023-11-25T03:39:20.399Z,98162.47
2023-11-25T03:42:42.298Z,98170.16
2023-11-25T03:46:05.570Z,98176.03
2023-11-25T03:49:28.641Z,98168.47
2023-11-25T03:52:50.774Z,98176.22
2023-11-25T03:56:12.639Z,98183.78
2023-11-25T03:59:34.312Z,98194.78
2023-11-25T04:02:56.298Z,98193.94
2023-11-25T04:06:19.682Z,98192.22
2023-11-25T04:09:41.329Z,98195.78
2023-11-25T04:13:03.269Z,98215.13
2023-11-25T04:16:25.353Z,98210.22
2023-11-25T04:19:47.297Z,98215.13
2023-11-25T04:23:10.904Z,98210.06
2023-11-25T04:26:32.580Z,98215.13
2023-11-25T04:29:54.783Z,98222.81
2023-11-25T04:33:16.644Z,98217.84
2023-11-25T04:36:40.420Z,98204.59
2023-11-25T04:40:06.533Z,98219.75
2023-11-25T04:43:28.715Z,98227.47
2023-11-25T04:46:50.734Z,98241.09
2023-11-25T04:50:12.532Z,98248.84
2023-11-25T04:53:34.049Z,98237.16
2023-11-25T04:56:57.479Z,98246.59
2023-11-25T05:00:19.786Z,98259.44
2023-11-25T05:03:41.605Z,98251.97
2023-11-25T05:07:05.145Z,98261.56
2023-11-25T05:10:29.751Z,98268.53
2023-11-25T05:13:59.197Z,98274.56
2023-11-25T05:17:21.526Z,98272.91
2023-11-25T05:20:43.386Z,98270.59
2023-11-25T05:24:06.199Z,98276.50
2023-11-25T05:27:28.557Z,98278.25
2023-11-25T05:30:52.335Z,98289.38
2023-11-25T05:34:15.095Z,98298.78
2023-11-25T05:37:36.649Z,98296.34
2023-11-25T05:40:58.696Z,98299.91
2023-11-25T05:44:22.461Z,98305.88
2023-11-25T05:47:45.495Z,98310.28
2023-11-25T05:51:08.734Z,98326.50
2023-11-25T05:54:30.394Z,98326.59
2023-11-25T05:57:53.909Z,98329.06
2023-11-25T06:01:15.743Z,98333.31
2023-11-25T06:04:39.052Z,98336.81
2023-11-25T06:08:01.200Z,98348.72
2023-11-25T06:11:23.776Z,98350.44
2023-11-25T06:14:45.803Z,98348.09
2023-11-25T06:18:08.699Z,98357.31
2023-11-25T06:21:32.586Z,98354.84
2023-11-25T06:24:54.605Z,98355.75
2023-11-25T06:28:16.536Z,98354.13
2023-11-25T06:31:38.508Z,98363.38
2023-11-25T06:35:00.325Z,98355.84
2023-11-25T06:38:24.816Z,98365.91
2023-11-25T06:41:50.561Z,98370.94
2023-11-25T06:45:15.283Z,98353.19
2023-11-25T06:48:37.081Z,98364.97
2023-11-25T06:51:59.350Z,98372.66
2023-11-25T06:55:23.089Z,98376.78
2023-11-25T06:58:45.257Z,98382.69
2023-11-25T07:02:07.225Z,98385.16
2023-11-25T07:05:29.757Z,98389.41
2023-11-25T07:08:53.691Z,98390.28
2023-11-25T07:12:17.161Z,98403.03
2023-11-25T07:15:38.790Z,98400.47
2023-11-25T07:19:01.966Z,98409.81
2023-11-25T07:22:23.728Z,98414.16
2023-11-25T07:25:46.767Z,98418.38
2023-11-25T07:29:11.913Z,98420.22
2023-11-25T07:32:34.482Z,98430.38
2023-11-25T07:35:56.574Z,98433.72
2023-11-25T07:39:20.917Z,98433.88
2023-11-25T07:42:44.423Z,98443.41
2023-11-25T07:46:09.727Z,98444.44
2023-11-25T07:49:33.099Z,98448.97
2023-11-25T07:52:54.847Z,98455.78
2023-11-25T07:56:16.522Z,98459.22
2023-11-25T07:59:38.455Z,98455.41
2023-11-25T08:03:03.823Z,98457.91
2023-11-25T08:06:26.978Z,98455.88
2023-11-25T08:09:48.627Z,98463.81
2023-11-25T08:13:10.630Z,98460.69
2023-11-25T08:16:32.674Z,98472.75
2023-11-25T08:19:56.531Z,98452.00
2023-11-25T08:23:18.726Z,98480.00
2023-11-25T08:26:40.543Z,98483.47
2023-11-25T08:30:03.540Z,98483.63
2023-11-25T08:33:26.657Z,98482.22
2023-11-25T08:36:54.881Z,98484.00
2023-11-25T08:40:18.406Z,98489.88
2023-11-25T08:43:41.751Z,98495.75
2023-11-25T08:47:03.625Z,98496.75
2023-11-25T08:50:25.487Z,98508.53
2023-11-25T08:53:51.132Z,98498.53
2023-11-25T08:57:13.252Z,98506.91
2023-11-25T09:00:35.636Z,98514.41
2023-11-25T09:03:57.743Z,98507.88
2023-11-25T09:07:19.971Z,98518.03
2023-11-25T09:10:44.258Z,98515.63
2023-11-25T09:14:07.430Z,98515.59
2023-11-25T09:17:29.353Z,98513.19
2023-11-25T09:20:51.699Z,98517.28
2023-11-25T09:24:13.836Z,98523.28
2023-11-25T09:27:37.308Z,98522.38
2023-11-25T09:30:59.105Z,98528.34
2023-11-25T09:34:21.229Z,98518.91
2023-11-25T09:37:44.329Z,98518.75
2023-11-25T09:41:06.537Z,98526.38
2023-11-25T09:44:31.777Z,98536.50
2023-11-25T09:47:55.622Z,98533.03
2023-11-25T09:51:23.222Z,98533.84
2023-11-25T09:54:45.864Z,98528.56
2023-11-25T09:58:08.710Z,98532.69
2023-11-25T10:01:33.513Z,98534.22
2023-11-25T10:04:57.582Z,98529.84
2023-11-25T10:08:19.283Z,98532.47
2023-11-25T10:11:44.390Z,98537.50
2023-11-25T10:15:08.986Z,98530.72
2023-11-25T10:18:32.396Z,98536.69
2023-11-25T10:21:54.531Z,98533.47
2023-11-25T10:25:18.279Z,98538.56
2023-11-25T10:28:40.388Z,98543.78
2023-11-25T10:32:02.282Z,98543.09
2023-11-25T10:35:26.605Z,98544.00
2023-11-25T10:38:50.153Z,98550.78
2023-11-25T10:42:12.416Z,98555.75
2023-11-25T10:45:34.512Z,98557.34
2023-11-25T10:48:56.440Z,98560.78
2023-11-25T10:52:19.880Z,98563.50
2023-11-25T10:55:44.760Z,98570.22
2023-11-25T10:59:08.251Z,98573.81
2023-11-25T11:02:33.497Z,98583.16
2023-11-25T11:05:57.590Z,98590.06
2023-11-25T11:09:23.385Z,98600.97
2023-11-25T11:12:51.252Z,98585.56
2023-11-25T11:16:18.544Z,98587.34
2023-11-25T11:19:42.906Z,98582.41
2023-11-25T11:23:06.986Z,98588.63
2023-11-25T11:26:35.428Z,98554.19
2023-11-25T11:30:04.623Z,98591.28
2023-11-25T11:33:26.927Z,98593.06
2023-11-25T11:36:49.067Z,98597.44
2023-11-25T11:40:13.875Z,98593.28
2023-11-25T11:43:38.577Z,98589.00
2023-11-25T11:47:00.304Z,98595.78
2023-11-25T11:50:24.366Z,98596.75
2023-11-25T11:53:46.149Z,98601.09
2023-11-25T11:57:14.624Z,98610.56
2023-11-25T12:00:48.587Z,98605.53
2023-11-25T12:04:11.207Z,98610.50
2023-11-25T12:07:33.816Z,98616.50
2023-11-25T12:10:57.187Z,98626.66
2023-11-25T12:14:19.265Z,98625.06
2023-11-25T12:17:43.549Z,98625.97
2023-11-25T12:21:06.997Z,98636.06
2023-11-25T12:24:28.675Z,98632.88
2023-11-25T12:27:56.031Z,98640.47
2023-11-25T12:31:18.326Z,98645.88
2023-11-25T12:34:46.475Z,98657.88
2023-11-25T12:38:15.332Z,98640.38
2023-11-25T12:41:38.385Z,98625.19
2023-11-25T12:45:01.994Z,98665.75
2023-11-25T12:48:33.831Z,98659.81
2023-11-25T12:51:57.756Z,98669.25
2023-11-25T12:55:37.245Z,98677.81
2023-11-25T12:58:59.445Z,98665.88
2023-11-25T13:02:21.632Z,98674.53
2023-11-25T13:05:43.773Z,98672.88
2023-11-25T13:09:07.551Z,98687.31
2023-11-25T13:12:30.263Z,98685.78
2023-11-25T13:15:54.113Z,98696.75
2023-11-25T13:19:15.971Z,98701.88
2023-11-25T13:22:37.468Z,98693.38
2023-11-25T13:26:00.889Z,98702.78
2023-11-25T13:29:22.806Z,98704.66
2023-11-25T13:32:44.924Z,98702.06
2023-11-25T13:36:08.903Z,98707.19
2023-11-25T13:39:32.515Z,98700.41
2023-11-25T13:42:56.083Z,98702.09
2023-11-25T13:46:17.674Z,98701.28
2023-11-25T13:49:39.528Z,98709.78
2023-11-25T13:53:02.363Z,98708.06
2023-11-25T13:56:24.712Z,98711.50
2023-11-25T13:59:47.617Z,98712.38
2023-11-25T14:03:11.861Z,98714.09
2023-11-25T14:06:34.372Z,98713.28
2023-11-25T14:09:56.287Z,98726.13
2023-11-25T14:13:19.805Z,98726.13
2023-11-25T14:16:48.943Z,98729.53
2023-11-25T14:20:17.590Z,98725.38
2023-11-25T14:23:39.571Z,98735.59
2023-11-25T14:27:02.097Z,98738.16
2023-11-25T14:30:28.859Z,98738.22
2023-11-25T14:33:52.288Z,98749.28
2023-11-25T14:37:14.299Z,98762.97
2023-11-25T14:40:40.326Z,98756.28
2023-11-25T14:44:02.307Z,98751.28
2023-11-25T14:47:25.073Z,98761.38
2023-11-25T14:50:48.110Z,98764.88
2023-11-25T14:54:10.252Z,98765.72
2023-11-25T14:57:32.065Z,98773.41
2023-11-25T15:00:54.160Z,98772.53
2023-11-25T15:04:17.277Z,98769.19
2023-11-25T15:07:40.557Z,98778.56
2023-11-25T15:11:02.529Z,98776.91
2023-11-25T15:14:24.675Z,98782.00
2023-11-25T15:17:47.105Z,98783.72
2023-11-25T15:21:08.932Z,98787.00
2023-11-25T15:24:31.836Z,98791.19
2023-11-25T15:27:55.952Z,98793.78
2023-11-25T15:31:17.966Z,98796.41
2023-11-25T15:34:39.845Z,98803.22
2023-11-25T15:38:01.582Z,98808.31
2023-11-25T15:41:25.059Z,98806.69
2023-11-25T15:44:47.072Z,98808.41
2023-11-25T15:48:09.481Z,98780.69
2023-11-25T15:51:31.154Z,98819.50
2023-11-25T15:54:53.257Z,98825.47
2023-11-25T15:58:16.752Z,98828.91
2023-11-25T16:01:40.706Z,98833.22
2023-11-25T16:05:03.002Z,98836.63
2023-11-25T16:08:25.578Z,98827.38
2023-11-25T16:11:47.490Z,98832.50
2023-11-25T16:15:12.156Z,98840.13
2023-11-25T16:18:34.415Z,98851.13
2023-11-25T16:21:57.838Z,98852.84
2023-11-25T16:25:20.335Z,98857.94
2023-11-25T16:28:42.677Z,98857.94
2023-11-25T16:32:07.220Z,98863.03
2023-11-25T16:35:29.353Z,98859.66
2023-11-25T16:38:51.297Z,98865.56
2023-11-25T16:42:13.147Z,98861.47
2023-11-25T16:45:35.067Z,98874.16
2023-11-25T16:49:07.129Z,98894.56
2023-11-25T16:52:30.739Z,98893.72
2023-11-25T16:55:53.128Z,98887.03
2023-11-25T16:59:15.534Z,98877.78
2023-11-25T17:02:37.695Z,98908.34
2023-11-25T17:06:01.015Z,98912.56
2023-11-25T17:09:22.996Z,98916.84
2023-11-25T17:12:44.912Z,98910.97
2023-11-25T17:16:06.980Z,98903.41
2023-11-25T17:19:29.726Z,98913.56
2023-11-25T17:22:54.018Z,98906.78
2023-11-25T17:26:16.109Z,98916.19
2023-11-25T17:29:38.304Z,98912.75
2023-11-25T17:32:59.954Z,98910.28
2023-11-25T17:36:22.385Z,98917.06
2023-11-25T17:39:45.809Z,98927.28
2023-11-25T17:43:07.407Z,98917.09
2023-11-25T17:46:29.237Z,98917.97
2023-11-25T17:49:51.141Z,98917.22
2023-11-25T17:53:14.979Z,98931.69
2023-11-25T17:56:38.305Z,98931.75
2023-11-25T18:00:00.159Z,98937.72
2023-11-25T18:03:22.829Z,98937.78
2023-11-25T18:06:44.368Z,98939.56
2023-11-25T18:10:07.037Z,98945.53
2023-11-25T18:13:30.529Z,98943.94
2023-11-25T18:16:54.867Z,98949.88
2023-11-25T18:20:17.294Z,98925.38
2023-11-25T18:23:39.131Z,98954.97
2023-11-25T18:27:01.048Z,98950.75
2023-11-25T18:30:24.513Z,98947.41
2023-11-25T18:33:46.510Z,98966.94
2023-11-25T18:37:08.477Z,98960.16
2023-11-25T18:40:30.370Z,98966.13
2023-11-25T18:43:52.303Z,98953.47
2023-11-25T18:47:15.689Z,98956.09
2023-11-25T18:50:37.767Z,98969.69
2023-11-25T18:53:59.871Z,98969.69
2023-11-25T18:57:22.008Z,98974.00
2023-11-25T19:00:44.018Z,98968.97
2023-11-25T19:04:07.961Z,98967.31
2023-11-25T19:07:29.955Z,98986.00
2023-11-25T19:10:52.233Z,98984.34
2023-11-25T19:14:15.177Z,98984.38
2023-11-25T19:17:39.913Z,98995.41
2023-11-25T19:21:03.842Z,98993.78
2023-11-25T19:24:25.701Z,99004.00
2023-11-25T19:27:48.169Z,99000.59
2023-11-25T19:31:09.887Z,99009.13
2023-11-25T19:34:31.768Z,99001.53
2023-11-25T19:37:55.333Z,99015.09
2023-11-25T19:41:17.237Z,99021.06
2023-11-25T19:44:38.887Z,99021.06
2023-11-25T19:48:00.845Z,99033.81
2023-11-25T19:51:22.988Z,99013.47
2023-11-25T19:54:46.225Z,99031.25
2023-11-25T19:58:08.429Z,99026.22
2023-11-25T20:01:30.336Z,99014.38
2023-11-25T20:04:52.134Z,99023.69
2023-11-25T20:08:14.363Z,99027.09
2023-11-25T20:11:37.600Z,99039.81
2023-11-25T20:14:59.264Z,99039.84
2023-11-25T20:18:20.744Z,99036.44
2023-11-25T20:21:42.740Z,99039.00
2023-11-25T20:25:04.982Z,99039.81
2023-11-25T20:28:27.968Z,99044.06
2023-11-25T20:31:49.696Z,99033.91
2023-11-25T20:35:11.841Z,99053.41
2023-11-25T20:38:34.112Z,99047.44
2023-11-25T20:41:58.513Z,99054.22
2023-11-25T20:45:22.383Z,99061.84
2023-11-25T20:48:44.380Z,99068.59
2023-11-25T20:52:07.121Z,99048.31
2023-11-25T20:55:28.826Z,99078.75
2023-11-25T20:58:50.672Z,99083.84
2023-11-25T21:02:14.223Z,99082.13
2023-11-25T21:05:36.453Z,99083.00
2023-11-25T21:08:58.167Z,99083.81
2023-11-25T21:12:21.610Z,99089.75
2023-11-25T21:15:43.302Z,99106.69
2023-11-25T21:19:06.534Z,99110.06
2023-11-25T21:22:29.562Z,99113.44
2023-11-25T21:25:51.573Z,99116.81
2023-11-25T21:29:13.883Z,99122.75
2023-11-25T21:32:37.719Z,99125.28
2023-11-25T21:36:03.185Z,99125.28
2023-11-25T21:39:25.867Z,99126.97
2023-11-25T21:42:47.540Z,99136.31
2023-11-25T21:46:09.897Z,99129.53
2023-11-25T21:49:31.861Z,99141.34
2023-11-25T21:52:54.974Z,99126.97
2023-11-25T21:56:18.917Z,99143.94
2023-11-25T21:59:40.956Z,99141.34
2023-11-25T22:03:02.683Z,99138.81
2023-11-25T22:06:26.370Z,99142.22
2023-11-25T22:09:49.871Z,99137.13
2023-11-25T22:13:12.087Z,99146.44
2023-11-25T22:16:34.264Z,99130.34
2023-11-25T22:19:55.916Z,99121.03
2023-11-25T22:23:18.798Z,99128.66
2023-11-25T22:26:48.720Z,99132.03
2023-11-25T22:30:12.972Z,99124.41
2023-11-25T22:33:35.311Z,99118.50
2023-11-25T22:36:57.046Z,99126.94
2023-11-25T22:40:18.913Z,99130.34
2023-11-25T22:43:42.342Z,99119.34
2023-11-25T22:47:04.661Z,99133.75
2023-11-25T22:50:26.438Z,99128.66
2023-11-25T22:53:48.378Z,99096.50
2023-11-25T22:57:10.137Z,99125.31
2023-11-25T23:00:43.247Z,99119.38
2023-11-25T23:04:05.440Z,99139.69
2023-11-25T23:07:27.203Z,99139.72
2023-11-25T23:10:49.007Z,99149.03
2023-11-25T23:14:11.238Z,99149.88
2023-11-25T23:17:34.466Z,99155.81
2023-11-25T23:20:57.556Z,99154.97
2023-11-25T23:24:19.965Z,99152.41
2023-11-25T23:27:42.044Z,99164.28
2023-11-25T23:31:05.534Z,99164.28
2023-11-25T23:34:28.936Z,99165.13
2023-11-25T23:37:51.258Z,99155.00
2023-11-25T23:41:13.043Z,99173.66
2023-11-25T23:44:35.100Z,99171.94
2023-11-25T23:47:56.924Z,99171.94
2023-11-25T23:51:20.342Z,99167.72
2023-11-25T23:54:43.390Z,99175.34
2023-11-25T23:58:05.636Z,99171.94
